Time;durP1;ratioP1;P1;durP2;ratioP2;P2;SDS_P1;SDS_P2;PMS_P1;PMS_P2;Temp;Humidity;BMP_temperature;BMP_pressure;BME280_temperature;BME280_humidity;BME280_pressure;Samples;Min_cycle;Max_cycle;Signal;HPM_P1;HPM_P2
2022/08/10 04:00:36;;;;;;;8.47;3.27;;;9.90;96.30;;;;;;5866957;23;20480;-80
2022/08/10 04:03:06;;;;;;;3.20;2.90;;;10.00;96.30;;;;;;5013522;28;20420;-80
2022/08/10 04:05:32;;;;;;;3.10;2.80;;;10.10;96.30;;;;;;5013492;28;20423;-80
2022/08/10 04:07:59;;;;;;;4.70;3.30;;;10.20;96.30;;;;;;5014619;28;20795;-80
2022/08/10 04:10:24;;;;;;;3.67;3.10;;;10.20;96.30;;;;;;5014964;28;20424;-80
2022/08/10 04:12:50;;;;;;;4.93;3.30;;;10.20;96.30;;;;;;5015063;28;20469;-80
2022/08/10 04:15:15;;;;;;;4.30;3.03;;;10.20;96.30;;;;;;5014599;28;20675;-80
2022/08/10 04:17:41;;;;;;;5.07;2.80;;;10.30;96.30;;;;;;5015059;28;20299;-80
2022/08/10 04:27:39;;;;;;;6.40;3.63;;;10.70;96.30;;;;;;5011391;28;20467;-78
2022/08/10 04:30:05;;;;;;;4.57;3.33;;;10.80;96.30;;;;;;5012547;28;20400;-77
2022/08/10 04:32:33;;;;;;;6.83;2.80;;;11.00;96.30;;;;;;5032507;28;20188;-78
2022/08/10 04:35:00;;;;;;;5.60;3.07;;;11.40;96.30;;;;;;5032663;28;20498;-77
2022/08/10 04:37:26;;;;;;;3.70;3.00;;;12.10;96.30;;;;;;5032682;28;20409;-78
2022/08/10 04:39:52;;;;;;;3.97;2.80;;;12.90;96.30;;;;;;5032033;28;20433;-77
2022/08/10 04:42:18;;;;;;;5.13;2.80;;;13.70;96.30;;;;;;5031269;28;20950;-78
2022/08/10 04:44:44;;;;;;;3.10;2.60;;;14.50;96.30;;;;;;5032635;28;20183;-78
2022/08/10 04:47:09;;;;;;;5.10;2.50;;;15.10;96.30;;;;;;5032542;28;20412;-78
2022/08/10 04:49:35;;;;;;;5.20;2.80;;;15.40;96.30;;;;;;5031850;28;20176;-77
2022/08/10 04:52:00;;;;;;;5.20;2.40;;;15.20;96.30;;;;;;5031133;28;20671;-78
2022/08/10 04:54:26;;;;;;;6.67;2.97;;;14.90;96.30;;;;;;5032396;28;20199;-77
2022/08/10 04:56:51;;;;;;;3.70;2.80;;;15.00;96.30;;;;;;5032500;28;20187;-78
2022/08/10 04:59:17;;;;;;;5.47;2.63;;;15.40;96.30;;;;;;5031772;28;20254;-77
2022/08/10 05:01:43;;;;;;;2.70;2.10;;;15.80;96.30;;;;;;5032344;28;20267;-77
2022/08/10 05:04:08;;;;;;;5.10;2.70;;;15.90;96.30;;;;;;5032171;28;20620;-78
2022/08/10 05:06:34;;;;;;;4.93;2.50;;;15.80;96.30;;;;;;5032337;28;20180;-79
2022/08/10 05:08:59;;;;;;;3.97;2.63;;;15.80;96.30;;;;;;5031758;28;20215;-77
2022/08/10 05:11:25;;;;;;;5.00;2.50;;;15.90;96.30;;;;;;5032110;28;20196;-77
2022/08/10 05:13:50;;;;;;;3.03;2.37;;;15.70;96.30;;;;;;5030961;28;20219;-77
2022/08/10 05:16:16;;;;;;;6.73;2.73;;;15.40;96.30;;;;;;5032440;28;20183;-79
2022/08/10 05:18:41;;;;;;;7.83;2.60;;;15.20;96.30;;;;;;5031452;28;20192;-77
2022/08/10 05:21:07;;;;;;;5.50;2.83;;;15.30;96.30;;;;;;5032021;28;20229;-77
2022/08/10 05:23:32;;;;;;;3.97;2.63;;;15.20;96.30;;;;;;5030881;28;20210;-78
2022/08/10 05:25:58;;;;;;;4.10;2.70;;;15.00;96.30;;;;;;5031894;28;20245;-77
2022/08/10 05:28:23;;;;;;;5.90;2.57;;;14.90;96.30;;;;;;5031487;28;20192;-77
2022/08/10 05:30:49;;;;;;;2.80;2.50;;;14.80;96.30;;;;;;5031921;28;20203;-78
2022/08/10 05:33:14;;;;;;;3.90;2.53;;;15.00;96.30;;;;;;5031986;28;20275;-77
2022/08/10 05:35:40;;;;;;;7.67;2.93;;;15.10;96.30;;;;;;5035414;28;20180;-77
2022/08/10 05:38:07;;;;;;;3.90;2.40;;;15.40;96.30;;;;;;5034252;28;20218;-78
2022/08/10 05:40:34;;;;;;;8.70;2.30;;;16.60;96.30;;;;;;5035820;28;20184;-78
2022/08/10 05:42:59;;;;;;;3.93;2.40;;;18.10;96.30;;;;;;5035991;28;20831;-78
2022/08/10 05:45:26;;;;;;;4.23;2.63;;;19.40;96.30;;;;;;5035901;28;20957;-78
2022/08/10 05:47:52;;;;;;;5.40;2.40;;;20.90;91.20;;;;;;5035377;28;20686;-78
2022/08/10 05:50:21;;;;;;;5.30;2.67;;;20.90;91.70;;;;;;5035728;28;20514;-78
2022/08/10 05:52:47;;;;;;;7.97;2.70;;;22.00;87.30;;;;;;5035670;28;20411;-77
2022/08/10 05:55:12;;;;;;;2.70;2.10;;;22.60;85.40;;;;;;5034357;28;20506;-78
2022/08/10 05:57:38;;;;;;;3.13;2.57;;;23.10;84.80;;;;;;5035626;28;20226;-78
2022/08/10 06:00:08;;;;;;;3.50;2.40;;;24.00;82.10;;;;;;5035305;28;20222;-79
2022/08/10 06:02:39;;;;;;;6.90;2.17;;;24.40;80.40;;;;;;5035495;28;20171;-78
2022/08/10 06:05:07;;;;;;;10.70;2.47;;;24.60;79.00;;;;;;5035580;28;20430;-78
2022/08/10 06:07:37;;;;;;;11.23;2.47;;;24.90;78.40;;;;;;5035517;28;20481;-78
2022/08/10 06:10:03;;;;;;;10.43;2.27;;;25.50;76.70;;;;;;5034819;28;20823;-78
2022/08/10 06:12:32;;;;;;;3.27;2.40;;;25.40;76.80;;;;;;5035415;28;20505;-78
2022/08/10 06:15:02;;;;;;;3.07;2.13;;;25.20;77.30;;;;;;5035375;28;20414;-77
2022/08/10 06:17:29;;;;;;;3.53;2.33;;;25.30;77.60;;;;;;5035287;28;20410;-78
2022/08/10 06:19:58;;;;;;;3.33;2.60;;;26.60;74.40;;;;;;5033433;28;20420;-79
2022/08/10 06:22:31;;;;;;;3.43;2.23;;;26.70;74.50;;;;;;5035241;28;20449;-78
2022/08/10 06:24:57;;;;;;;7.10;2.03;;;26.90;73.10;;;;;;5035182;28;20402;-78
2022/08/10 06:27:22;;;;;;;6.07;2.27;;;27.60;72.20;;;;;;5035072;28;20434;-78
2022/08/10 06:29:50;;;;;;;9.97;2.00;;;27.80;71.50;;;;;;5034624;28;20463;-78
2022/08/10 06:32:17;;;;;;;5.07;2.77;;;27.30;71.20;;;;;;5034987;28;20196;-78
2022/08/10 06:34:46;;;;;;;2.50;1.97;;;27.50;71.20;;;;;;5034933;28;20407;-77
2022/08/10 06:37:15;;;;;;;2.50;2.03;;;27.00;73.20;;;;;;5034976;28;20556;-78
2022/08/10 06:39:42;;;;;;;3.83;2.40;;;27.10;73.40;;;;;;5034837;28;20945;-80
2022/08/10 06:42:15;;;;;;;2.53;2.10;;;27.20;73.90;;;;;;5035037;28;20896;-78
2022/08/10 06:44:49;;;;;;;4.17;2.77;;;27.90;71.80;;;;;;5035654;28;20395;-78
2022/08/10 06:47:17;;;;;;;2.87;2.30;;;28.30;70.80;;;;;;5034069;28;20418;-78
2022/08/10 06:49:45;;;;;;;4.20;2.40;;;28.20;70.30;;;;;;5034213;28;20895;-78
2022/08/10 06:52:12;;;;;;;5.50;2.30;;;27.60;71.40;;;;;;5034811;28;20437;-78
2022/08/10 06:54:40;;;;;;;5.30;2.00;;;28.00;70.90;;;;;;5035074;28;20493;-79
2022/08/10 06:57:08;;;;;;;10.07;2.10;;;29.10;68.80;;;;;;5035090;28;20426;-78
2022/08/10 06:59:39;;;;;;;4.07;1.80;;;29.80;68.20;;;;;;5032613;28;20458;-78
2022/08/10 07:02:08;;;;;;;3.40;2.07;;;29.50;68.70;;;;;;5034454;28;20433;-78
2022/08/10 07:04:41;;;;;;;6.70;2.27;;;29.90;66.90;;;;;;5034478;28;20513;-78
2022/08/10 07:07:07;;;;;;;7.53;2.40;;;29.80;66.70;;;;;;5034412;28;20415;-79
2022/08/10 07:09:38;;;;;;;3.40;2.10;;;30.40;66.20;;;;;;5033712;28;20426;-79
2022/08/10 07:12:06;;;;;;;5.53;2.60;;;29.20;68.40;;;;;;5034356;28;20211;-78
2022/08/10 07:14:33;;;;;;;7.60;2.50;;;29.80;67.90;;;;;;5032996;28;20505;-78
2022/08/10 07:17:00;;;;;;;7.13;2.20;;;28.70;68.70;;;;;;5034213;28;20410;-79
2022/08/10 07:19:27;;;;;;;5.37;2.13;;;29.00;69.30;;;;;;5033617;28;20819;-78
2022/08/10 07:21:53;;;;;;;7.93;2.53;;;29.20;68.60;;;;;;5034189;28;20183;-78
2022/08/10 07:24:20;;;;;;;5.23;2.40;;;27.60;72.00;;;;;;5033976;28;20422;-78
2022/08/10 07:26:49;;;;;;;5.50;2.47;;;26.70;73.70;;;;;;5034273;28;20885;-77
2022/08/10 07:29:17;;;;;;;8.30;2.10;;;26.20;74.60;;;;;;5033546;28;20430;-77
2022/08/10 07:31:43;;;;;;;6.07;2.60;;;25.80;75.40;;;;;;5033907;28;20856;-79
2022/08/10 07:34:13;;;;;;;11.20;2.27;;;25.30;76.60;;;;;;5033783;28;20422;-78
2022/08/10 07:36:41;;;;;;;6.30;2.27;;;24.70;78.20;;;;;;5033767;28;20454;-77
2022/08/10 07:39:09;;;;;;;8.27;1.93;;;24.50;78.60;;;;;;5031934;28;20450;-77
2022/08/10 07:41:39;;;;;;;7.53;2.50;;;24.10;80.20;;;;;;5033307;28;21000;-77
2022/08/10 07:44:06;;;;;;;10.93;2.47;;;23.80;82.50;;;;;;5033773;28;20395;-77
2022/08/10 07:46:35;;;;;;;9.97;2.93;;;23.50;83.30;;;;;;5033759;28;20414;-77
2022/08/10 07:49:08;;;;;;;22.77;3.07;;;23.30;83.60;;;;;;5033064;28;20809;-78
2022/08/10 07:51:35;;;;;;;8.40;2.23;;;23.50;85.00;;;;;;5033616;28;20917;-78
2022/08/10 07:54:04;;;;;;;9.03;2.60;;;25.20;82.30;;;;;;5033519;28;20413;-78
2022/08/10 07:56:32;;;;;;;4.83;1.90;;;26.40;73.20;;;;;;5033373;28;20410;-78
2022/08/10 07:59:08;;;;;;;3.97;2.00;;;26.70;73.90;;;;;;5031917;28;20454;-78
2022/08/10 08:01:37;;;;;;;8.53;2.13;;;26.20;74.40;;;;;;5033731;28;20529;-77
2022/08/10 08:04:03;;;;;;;5.30;2.27;;;25.70;77.50;;;;;;5033277;28;20402;-78
2022/08/10 08:06:31;;;;;;;4.80;2.30;;;25.30;78.10;;;;;;5033472;28;20441;-78
2022/08/10 08:08:59;;;;;;;8.00;1.80;;;24.90;78.40;;;;;;5031633;28;21048;-78
2022/08/10 08:11:26;;;;;;;3.97;1.77;;;24.50;79.40;;;;;;5033115;28;20437;-77
2022/08/10 08:13:53;;;;;;;3.27;1.70;;;24.20;80.00;;;;;;5033196;28;20403;-77
2022/08/10 08:16:21;;;;;;;3.53;2.00;;;24.00;81.00;;;;;;5032968;28;20410;-78
2022/08/10 08:18:50;;;;;;;10.00;2.20;;;23.80;80.90;;;;;;5032420;28;20459;-78
2022/08/10 08:21:17;;;;;;;6.53;1.73;;;23.70;80.60;;;;;;5032879;28;20910;-77
2022/08/10 08:23:43;;;;;;;4.13;1.90;;;23.70;80.70;;;;;;5033030;28;20782;-77
2022/08/10 08:26:10;;;;;;;5.67;2.30;;;23.50;81.80;;;;;;5032716;28;20525;-79
2022/08/10 08:28:35;;;;;;;5.10;2.03;;;23.30;82.80;;;;;;5032441;28;20886;-78
2022/08/10 08:31:03;;;;;;;5.00;1.87;;;23.20;83.30;;;;;;5032758;28;20431;-77
2022/08/10 08:33:30;;;;;;;3.20;1.90;;;23.00;82.60;;;;;;5031452;28;20204;-77
2022/08/10 08:35:56;;;;;;;7.33;1.73;;;23.00;83.60;;;;;;5032602;28;20411;-78
2022/08/10 08:38:22;;;;;;;6.50;2.27;;;23.20;83.10;;;;;;5032163;28;20512;-78
2022/08/10 08:40:59;;;;;;;2.47;1.93;;;23.80;83.80;;;;;;5032443;28;20196;-77
2022/08/10 08:43:45;;;;;;;6.23;2.33;;;25.00;80.80;;;;;;5032647;28;20403;-78
2022/08/10 08:46:27;;;;;;;5.27;2.40;;;27.30;76.40;;;;;;5032488;28;20450;-78
2022/08/10 08:49:24;;;;;;;3.20;2.13;;;28.90;72.40;;;;;;5032201;28;20395;-78
2022/08/10 08:52:18;;;;;;;4.23;2.23;;;29.40;66.70;;;;;;5032509;28;20434;-77
2022/08/10 08:55:30;;;;;;;6.80;2.00;;;29.10;68.40;;;;;;5032431;28;20399;-79
2022/08/10 08:58:04;;;;;;;6.63;2.03;;;28.30;67.70;;;;;;5031866;28;20449;-79
2022/08/10 09:00:56;;;;;;;7.00;2.27;;;27.00;69.50;;;;;;5032401;28;20433;-77
2022/08/10 09:04:04;;;;;;;10.37;2.30;;;26.70;71.40;;;;;;5032446;28;20421;-78
2022/08/10 09:06:53;;;;;;;16.00;2.73;;;26.40;70.50;;;;;;5032400;28;20390;-77
2022/08/10 09:09:37;;;;;;;8.43;2.00;;;26.70;72.60;;;;;;5031267;28;20771;-78
2022/08/10 09:12:21;;;;;;;3.80;2.40;;;28.10;66.60;;;;;;5032154;28;20422;-78
2022/08/10 09:14:57;;;;;;;4.67;1.73;;;29.90;61.30;;;;;;5032203;28;20386;-78
2022/08/10 09:17:46;;;;;;;3.93;1.80;;;30.10;61.50;;;;;;5032124;28;20778;-79
2022/08/10 09:20:21;;;;;;;2.30;1.57;;;30.40;61.10;;;;;;5031623;28;20457;-78
2022/08/10 09:23:04;;;;;;;2.67;2.00;;;30.70;60.80;;;;;;5032201;28;20390;-77
2022/08/10 09:25:35;;;;;;;5.10;2.00;;;30.60;60.10;;;;;;5031953;28;20882;-77
2022/08/10 09:28:10;;;;;;;2.77;2.07;;;30.20;61.70;;;;;;5031530;28;20398;-77
2022/08/10 09:31:01;;;;;;;3.70;2.30;;;30.00;60.70;;;;;;5031946;28;20476;-77
2022/08/10 09:33:43;;;;;;;5.83;2.03;;;29.10;61.50;;;;;;5031849;28;20402;-77
2022/08/10 09:36:37;;;;;;;4.40;2.10;;;29.00;61.80;;;;;;5032008;28;20406;-79
2022/08/10 09:39:08;;;;;;;6.30;2.17;;;29.30;62.30;;;;;;5031427;28;20975;-77
2022/08/10 09:41:54;;;;;;;3.10;2.03;;;29.70;61.60;;;;;;5031777;28;20438;-78
2022/08/10 09:44:48;;;;;;;4.03;2.23;;;30.00;60.70;;;;;;5030667;28;20406;-77
2022/08/10 09:48:05;;;;;;;4.23;1.90;;;29.40;60.60;;;;;;5031817;28;20934;-77
2022/08/10 09:50:57;;;;;;;4.50;2.07;;;29.10;61.10;;;;;;4987427;28;20430;-77
2022/08/10 09:53:49;;;;;;;5.70;2.33;;;29.90;59.60;;;;;;5031866;28;20493;-77
2022/08/10 09:56:39;;;;;;;3.53;1.83;;;29.40;59.40;;;;;;5031737;28;20478;-78
2022/08/10 09:59:37;;;;;;;5.60;2.07;;;28.50;58.60;;;;;;5031184;28;20503;-77
2022/08/10 10:02:23;;;;;;;4.73;2.10;;;28.20;60.70;;;;;;5032434;28;20418;-79
2022/08/10 10:05:10;;;;;;;3.00;1.80;;;28.70;59.20;;;;;;5033332;28;20452;-79
2022/08/10 10:07:44;;;;;;;2.70;1.80;;;29.00;56.90;;;;;;5032231;28;20422;-79
2022/08/10 10:10:15;;;;;;;7.37;1.97;;;29.70;60.50;;;;;;5033096;28;20426;-79
2022/08/10 10:12:53;;;;;;;5.97;2.00;;;30.00;59.60;;;;;;5033476;28;20414;-79
2022/08/10 10:15:51;;;;;;;8.10;2.63;;;30.90;59.40;;;;;;5033056;28;20422;-78
2022/08/10 10:18:38;;;;;;;2.70;2.27;;;30.10;59.10;;;;;;5030819;28;20977;-79
2022/08/10 10:21:25;;;;;;;7.50;2.40;;;28.70;60.80;;;;;;5033344;28;20437;-79
2022/08/10 10:24:07;;;;;;;2.00;1.80;;;27.00;64.80;;;;;;5037781;28;20399;-79
2022/08/10 10:26:58;;;;;;;6.37;2.73;;;26.20;65.70;;;;;;5034979;28;20461;-77
2022/08/10 10:29:53;;;;;;;5.20;2.07;;;25.70;67.60;;;;;;5034619;28;20403;-77
2022/08/10 10:32:43;;;;;;;10.47;2.23;;;25.90;66.00;;;;;;5035098;28;21192;-77
2022/08/10 10:35:33;;;;;;;4.10;2.00;;;26.00;67.60;;;;;;5033633;28;20441;-77
2022/08/10 10:38:00;;;;;;;7.77;1.90;;;25.90;67.50;;;;;;5034429;28;20453;-78
2022/08/10 10:40:31;;;;;;;2.80;2.37;;;25.90;67.20;;;;;;5034716;28;20417;-78
2022/08/10 10:43:14;;;;;;;3.20;2.20;;;25.50;67.90;;;;;;5034866;28;20395;-77
2022/08/10 10:46:22;;;;;;;4.03;2.33;;;25.50;69.00;;;;;;5034851;28;20887;-79
2022/08/10 10:49:19;;;;;;;2.57;2.20;;;25.40;68.80;;;;;;5034323;28;20399;-77
2022/08/10 10:52:11;;;;;;;3.77;2.17;;;26.00;69.30;;;;;;5034694;28;20426;-78
2022/08/10 10:54:47;;;;;;;2.50;1.60;;;27.20;67.20;;;;;;5033382;28;20413;-78
2022/08/10 10:57:23;;;;;;;7.17;2.47;;;27.80;64.10;;;;;;5034585;28;20437;-80
2022/08/10 11:00:08;;;;;;;6.10;2.00;;;27.70;65.10;;;;;;5033907;28;20446;-78
2022/08/10 11:03:03;;;;;;;2.37;1.80;;;27.90;64.40;;;;;;5034537;28;20399;-77
2022/08/10 11:05:35;;;;;;;7.20;2.17;;;28.00;65.60;;;;;;5034385;28;20406;-78
2022/08/10 11:08:17;;;;;;;2.07;1.77;;;28.60;62.80;;;;;;5033926;28;20410;-78
2022/08/10 11:10:44;;;;;;;4.17;2.03;;;28.90;62.20;;;;;;5034198;28;20441;-78
2022/08/10 11:13:15;;;;;;;2.93;2.07;;;28.80;61.80;;;;;;5033039;28;20937;-77
2022/08/10 11:16:05;;;;;;;2.37;2.00;;;28.30;62.70;;;;;;5034382;28;20395;-79
2022/08/10 11:18:38;;;;;;;3.47;2.40;;;28.50;64.40;;;;;;5033581;28;20446;-77
2022/08/10 11:21:18;;;;;;;3.20;1.63;;;28.30;62.20;;;;;;5034140;28;20505;-78
2022/08/10 11:24:08;;;;;;;8.73;2.30;;;28.10;63.80;;;;;;5032954;28;20410;-77
2022/08/10 11:26:48;;;;;;;6.20;2.47;;;27.90;63.50;;;;;;5032589;28;20441;-78
2022/08/10 11:29:42;;;;;;;4.80;2.17;;;27.80;63.80;;;;;;5033575;28;20441;-77
2022/08/10 11:32:18;;;;;;;11.70;2.27;;;27.80;63.50;;;;;;5033769;28;20453;-77
2022/08/10 11:34:59;;;;;;;5.50;2.07;;;27.50;64.00;;;;;;5034014;28;20394;-77
2022/08/10 11:38:01;;;;;;;5.00;2.00;;;27.00;65.60;;;;;;5034467;28;20440;-79
2022/08/10 11:40:36;;;;;;;2.57;2.00;;;27.50;63.90;;;;;;5022619;28;20424;-78
2022/08/10 11:43:18;;;;;;;3.60;1.97;;;27.70;64.40;;;;;;5034005;28;20387;-78
2022/08/10 11:46:09;;;;;;;5.07;2.03;;;27.80;64.30;;;;;;5033982;28;20474;-78
2022/08/10 11:48:48;;;;;;;4.17;2.07;;;27.50;64.40;;;;;;5033107;28;20426;-78
2022/08/10 11:51:23;;;;;;;5.13;2.10;;;27.40;64.00;;;;;;5033750;28;20529;-78
2022/08/10 11:53:59;;;;;;;8.10;2.10;;;27.50;65.40;;;;;;5033699;28;20413;-78
2022/08/10 11:56:35;;;;;;;11.70;2.30;;;27.50;63.20;;;;;;5033782;28;20398;-81
2022/08/10 12:01:48;;;;;;;4.53;2.30;;;29.20;61.60;;;;;;5033722;28;20461;-78
2022/08/10 12:04:16;;;;;;;5.03;2.20;;;30.50;63.20;;;;;;5033422;28;20410;-78
2022/08/10 12:06:43;;;;;;;4.57;2.53;;;31.60;58.70;;;;;;5033589;28;20407;-79
2022/08/10 12:09:11;;;;;;;6.67;2.00;;;31.70;56.40;;;;;;5032811;28;20926;-79
2022/08/10 12:11:37;;;;;;;7.37;2.00;;;30.30;59.20;;;;;;5033540;28;20469;-78
2022/08/10 12:14:13;;;;;;;1.87;1.73;;;30.10;57.60;;;;;;5033415;28;20488;-78
2022/08/10 12:16:44;;;;;;;6.37;2.20;;;28.60;59.40;;;;;;5032039;28;20960;-78
2022/08/10 12:19:35;;;;;;;4.67;2.40;;;28.50;60.20;;;;;;5031291;28;20516;-80
2022/08/10 12:22:11;;;;;;;8.67;2.10;;;27.60;60.70;;;;;;5033261;28;20794;-77
2022/08/10 12:24:45;;;;;;;2.63;2.00;;;27.20;61.30;;;;;;5031995;28;20402;-77
2022/08/10 12:27:29;;;;;;;4.00;2.30;;;26.60;62.50;;;;;;5033168;28;20430;-78
2022/08/10 12:30:05;;;;;;;4.10;2.10;;;26.40;63.90;;;;;;5032667;28;20399;-79
2022/08/10 12:32:46;;;;;;;2.17;1.93;;;26.20;64.40;;;;;;5032802;28;20466;-78
2022/08/10 12:35:31;;;;;;;9.20;2.03;;;26.00;64.80;;;;;;5032968;28;20932;-78
2022/08/10 12:38:15;;;;;;;3.63;1.83;;;26.10;64.90;;;;;;5032297;28;20402;-78
2022/08/10 12:40:48;;;;;;;5.70;2.23;;;26.10;65.50;;;;;;5032408;28;20430;-78
2022/08/10 12:43:20;;;;;;;10.40;3.03;;;26.30;65.20;;;;;;5032844;28;20445;-78
2022/08/10 12:45:57;;;;;;;3.40;1.90;;;26.40;66.10;;;;;;5032544;28;20387;-81
2022/08/10 12:48:33;;;;;;;4.70;1.90;;;26.10;64.90;;;;;;5032059;28;20872;-78
2022/08/10 12:51:12;;;;;;;9.57;2.00;;;26.10;65.60;;;;;;5032734;28;20787;-80
2022/08/10 12:54:12;;;;;;;5.73;2.20;;;26.20;64.40;;;;;;5032680;28;20453;-79
2022/08/10 12:56:44;;;;;;;4.37;2.10;;;27.00;65.00;;;;;;5032704;28;20410;-78
2022/08/10 12:59:11;;;;;;;5.80;2.00;;;27.50;62.10;;;;;;5032023;28;20453;-77
2022/08/10 13:01:39;;;;;;;2.10;1.87;;;27.00;62.30;;;;;;5031314;28;20479;-78
2022/08/10 13:04:08;;;;;;;3.70;2.50;;;26.50;62.20;;;;;;5032384;28;20412;-78
2022/08/10 13:06:39;;;;;;;3.57;1.73;;;26.40;62.60;;;;;;5031337;28;20418;-78
2022/08/10 13:09:08;;;;;;;1.93;1.57;;;26.10;62.40;;;;;;5031840;28;20430;-79
2022/08/10 13:11:38;;;;;;;3.43;1.93;;;26.20;63.70;;;;;;5031162;28;20448;-79
2022/08/10 13:14:13;;;;;;;3.20;1.97;;;26.30;63.30;;;;;;5032340;28;20407;-80
2022/08/10 13:16:41;;;;;;;3.27;2.23;;;26.60;63.30;;;;;;5032459;28;20394;-78
2022/08/10 13:19:08;;;;;;;2.53;1.77;;;26.50;63.90;;;;;;5031497;28;20878;-78
2022/08/10 13:21:37;;;;;;;1.93;1.80;;;26.20;63.80;;;;;;5032197;28;20942;-78
2022/08/10 13:24:10;;;;;;;6.10;2.20;;;26.20;64.50;;;;;;5032179;28;20406;-77
2022/08/10 13:26:47;;;;;;;2.47;1.90;;;26.20;64.50;;;;;;5031970;28;20433;-79
2022/08/10 13:29:17;;;;;;;18.80;1.90;;;26.30;63.80;;;;;;5031841;28;20400;-78
2022/08/10 13:31:46;;;;;;;5.40;2.00;;;26.50;63.60;;;;;;5032131;28;20430;-79
2022/08/10 13:34:21;;;;;;;3.53;2.20;;;26.40;64.90;;;;;;5032081;28;20398;-80
2022/08/10 13:36:49;;;;;;;1.93;1.73;;;26.30;64.90;;;;;;5032256;28;20896;-78
2022/08/10 13:39:25;;;;;;;4.80;2.17;;;26.50;65.80;;;;;;5030254;28;20553;-78
2022/08/10 13:41:52;;;;;;;2.70;2.00;;;27.20;63.10;;;;;;5032175;28;20505;-78
2022/08/10 13:44:31;;;;;;;6.83;1.90;;;27.50;62.00;;;;;;5032024;28;20402;-79
2022/08/10 13:46:58;;;;;;;11.43;1.80;;;28.40;60.90;;;;;;5032127;28;20429;-80
2022/08/10 13:49:25;;;;;;;3.07;2.10;;;28.80;59.40;;;;;;5031361;28;20424;-77
2022/08/10 13:51:52;;;;;;;4.90;2.60;;;29.00;58.80;;;;;;5031998;28;20500;-80
2022/08/10 13:54:19;;;;;;;2.60;1.73;;;28.80;59.80;;;;;;5031943;28;20425;-79
2022/08/10 13:56:47;;;;;;;9.23;2.30;;;28.30;60.90;;;;;;5035547;28;20421;-81
2022/08/10 13:59:14;;;;;;;3.73;2.43;;;28.50;60.60;;;;;;5035294;28;20468;-79
2022/08/10 14:01:46;;;;;;;4.33;2.37;;;28.00;60.80;;;;;;5035694;28;20509;-78
2022/08/10 14:04:13;;;;;;;5.20;2.33;;;27.90;61.60;;;;;;5035713;28;20441;-78
2022/08/10 14:06:40;;;;;;;4.93;2.30;;;28.00;61.90;;;;;;5035814;28;20410;-78
2022/08/10 14:09:09;;;;;;;4.70;1.90;;;27.60;62.90;;;;;;5035032;28;20867;-79
2022/08/10 14:11:36;;;;;;;4.70;1.90;;;27.10;63.40;;;;;;5035458;28;20454;-81
2022/08/10 14:14:23;;;;;;;3.23;2.10;;;26.90;62.70;;;;;;5035712;28;20451;-79
2022/08/10 14:16:49;;;;;;;3.23;1.70;;;26.50;62.80;;;;;;5035496;28;20432;-78
2022/08/10 14:19:19;;;;;;;5.50;2.10;;;26.60;63.10;;;;;;5034848;28;20541;-79
2022/08/10 14:21:45;;;;;;;2.60;2.30;;;26.20;63.80;;;;;;5035626;28;20461;-79
2022/08/10 14:24:25;;;;;;;10.43;2.07;;;25.90;65.20;;;;;;5034174;28;20937;-78
2022/08/10 14:26:57;;;;;;;4.00;1.90;;;26.30;64.90;;;;;;5035212;28;20198;-78
2022/08/10 14:29:24;;;;;;;3.07;2.30;;;26.30;65.50;;;;;;5034732;28;20390;-78
2022/08/10 14:31:51;;;;;;;2.50;1.90;;;26.30;64.90;;;;;;5035307;28;20434;-79
2022/08/10 14:34:18;;;;;;;3.77;2.00;;;26.20;65.60;;;;;;5034988;28;20460;-79
2022/08/10 14:36:53;;;;;;;2.37;2.00;;;26.00;65.30;;;;;;5035238;28;20501;-79
2022/08/10 14:39:23;;;;;;;5.87;2.07;;;25.90;65.50;;;;;;5034368;28;20476;-79
2022/08/10 14:41:50;;;;;;;9.60;2.17;;;25.90;66.20;;;;;;5034967;28;20441;-79
2022/08/10 14:44:17;;;;;;;6.63;2.70;;;25.90;65.60;;;;;;5035000;28;20403;-78
2022/08/10 14:46:46;;;;;;;5.83;1.70;;;25.90;65.60;;;;;;5034987;28;20415;-79
2022/08/10 14:49:14;;;;;;;5.40;2.00;;;25.90;66.00;;;;;;5034405;28;20425;-78
2022/08/10 14:51:44;;;;;;;7.50;2.50;;;26.10;65.20;;;;;;5034888;28;20431;-78
2022/08/10 14:54:14;;;;;;;12.30;2.17;;;26.00;64.10;;;;;;5034847;28;20411;-79
2022/08/10 14:56:41;;;;;;;6.73;2.53;;;25.90;64.80;;;;;;5035224;28;20383;-78
2022/08/10 14:59:08;;;;;;;10.03;2.10;;;25.90;64.90;;;;;;5034303;28;20450;-78
2022/08/10 15:01:40;;;;;;;4.40;2.70;;;25.90;65.00;;;;;;5033353;28;21003;-78
2022/08/10 15:04:11;;;;;;;5.27;2.00;;;25.70;65.40;;;;;;5034523;28;20469;-78
2022/08/10 15:06:49;;;;;;;13.57;2.63;;;25.60;65.20;;;;;;5034157;28;20898;-78
2022/08/10 15:09:18;;;;;;;8.33;2.47;;;25.60;66.70;;;;;;5034111;28;20941;-78
2022/08/10 15:11:45;;;;;;;5.33;2.27;;;25.60;68.20;;;;;;5034438;28;20933;-78
2022/08/10 15:14:12;;;;;;;2.67;2.40;;;25.60;68.60;;;;;;5034573;28;20929;-79
2022/08/10 15:16:38;;;;;;;3.93;2.13;;;25.60;67.80;;;;;;5034481;28;20461;-81
2022/08/10 15:19:05;;;;;;;13.57;2.80;;;25.60;68.60;;;;;;5032491;28;21043;-78
2022/08/10 15:21:40;;;;;;;5.90;2.30;;;25.60;67.90;;;;;;5034329;28;21144;-79
2022/08/10 15:24:11;;;;;;;5.10;2.03;;;25.60;66.70;;;;;;5034306;28;20410;-78
2022/08/10 15:26:38;;;;;;;8.20;2.47;;;25.70;66.70;;;;;;5032701;28;20485;-77
2022/08/10 15:29:06;;;;;;;8.97;2.27;;;25.70;65.90;;;;;;5032318;28;20476;-81
2022/08/10 15:31:34;;;;;;;8.17;2.30;;;25.80;67.10;;;;;;5032690;28;20434;-77
2022/08/10 15:37:12;;;;;;;10.63;2.27;;;26.90;65.50;;;;;;5034281;28;20437;-77
2022/08/10 15:39:52;;;;;;;5.43;2.27;;;26.90;63.70;;;;;;5033213;28;20438;-77
2022/08/10 15:42:20;;;;;;;6.83;2.00;;;26.80;65.50;;;;;;5012768;28;21126;-77
2022/08/10 15:44:48;;;;;;;9.07;2.20;;;26.80;65.40;;;;;;5013985;28;20435;-77
2022/08/10 15:47:27;;;;;;;8.43;2.50;;;26.60;63.60;;;;;;5013995;28;20403;-77
2022/08/10 15:50:15;;;;;;;5.20;2.10;;;26.60;63.40;;;;;;5013507;28;20419;-79
2022/08/10 15:52:51;;;;;;;5.50;3.00;;;27.10;65.30;;;;;;5014026;28;20844;-82
2022/08/10 15:55:21;;;;;;;2.03;1.67;;;27.80;64.10;;;;;;5014009;28;20427;-78
2022/08/10 15:57:55;;;;;;;5.40;2.43;;;28.20;63.70;;;;;;5013914;28;20403;-78
2022/08/10 16:00:21;;;;;;;6.00;2.60;;;28.50;63.60;;;;;;5013827;28;20499;-78
2022/08/10 16:02:53;;;;;;;7.00;2.40;;;28.70;63.30;;;;;;5012427;28;20416;-78
2022/08/10 16:05:33;;;;;;;3.23;2.27;;;29.00;62.30;;;;;;5012536;28;20412;-79
2022/08/10 16:08:03;;;;;;;5.57;2.40;;;28.90;59.90;;;;;;5013427;28;20423;-78
2022/08/10 16:10:37;;;;;;;3.10;2.33;;;28.10;59.60;;;;;;5029080;28;20453;-79
2022/08/10 16:13:06;;;;;;;2.23;1.93;;;27.90;61.30;;;;;;5033581;28;20399;-79
2022/08/10 16:15:33;;;;;;;7.77;1.70;;;27.80;61.40;;;;;;5034452;28;20468;-79
2022/08/10 16:18:12;;;;;;;9.93;2.10;;;27.90;60.50;;;;;;5033570;28;20417;-79
2022/08/10 16:20:49;;;;;;;7.10;2.27;;;27.60;61.30;;;;;;5032816;28;20428;-78
2022/08/10 16:23:18;;;;;;;4.60;2.23;;;27.70;61.10;;;;;;5033435;28;20440;-78
2022/08/10 16:25:48;;;;;;;4.83;1.80;;;27.40;61.00;;;;;;5033137;28;21120;-78
2022/08/10 16:28:14;;;;;;;2.17;1.97;;;27.00;61.20;;;;;;5032831;28;20410;-81
2022/08/10 16:30:49;;;;;;;1.93;1.83;;;27.00;61.10;;;;;;5033321;28;20491;-80
2022/08/10 16:33:20;;;;;;;11.63;2.67;;;27.00;61.60;;;;;;5031944;28;20498;-78
2022/08/10 16:35:51;;;;;;;3.97;2.10;;;26.70;61.60;;;;;;5033341;28;20464;-79
2022/08/10 16:38:18;;;;;;;3.70;1.73;;;26.40;62.00;;;;;;5032692;28;20526;-81
2022/08/10 16:40:47;;;;;;;3.67;2.00;;;26.40;62.20;;;;;;5033940;28;20456;-78
2022/08/10 16:43:16;;;;;;;3.90;2.17;;;26.20;62.60;;;;;;5034357;28;20837;-79
2022/08/10 16:45:47;;;;;;;6.73;2.10;;;26.10;62.90;;;;;;5034229;28;20407;-78
2022/08/10 16:48:17;;;;;;;3.50;2.10;;;26.10;63.00;;;;;;5032239;28;20422;-79
2022/08/10 16:50:49;;;;;;;8.17;2.10;;;25.80;63.50;;;;;;5034128;28;20426;-81
2022/08/10 16:53:17;;;;;;;4.63;2.40;;;25.70;63.70;;;;;;5034189;28;20391;-78
2022/08/10 16:55:47;;;;;;;4.07;2.23;;;25.40;64.20;;;;;;5033947;28;20423;-78
2022/08/10 16:58:16;;;;;;;6.03;2.03;;;25.10;64.90;;;;;;5033446;28;20561;-78
2022/08/10 17:00:43;;;;;;;1.80;1.60;;;24.90;65.40;;;;;;5035374;28;20450;-79
2022/08/10 17:03:12;;;;;;;3.10;2.53;;;24.80;66.30;;;;;;5034968;28;20434;-78
2022/08/10 17:05:40;;;;;;;2.80;2.03;;;24.80;66.20;;;;;;5034434;28;20429;-78
2022/08/10 17:08:08;;;;;;;12.40;2.17;;;24.70;66.40;;;;;;5034023;28;20411;-80
2022/08/10 17:10:36;;;;;;;3.90;2.50;;;24.60;66.40;;;;;;5034189;28;20533;-79
2022/08/10 17:13:05;;;;;;;8.23;2.43;;;24.50;66.60;;;;;;5039127;28;20411;-82
2022/08/10 17:15:31;;;;;;;10.03;2.67;;;24.30;67.20;;;;;;5056151;28;20427;-86
2022/08/10 17:17:59;;;;;;;10.33;2.33;;;24.30;67.50;;;;;;5056880;28;20414;-84
2022/08/10 17:20:28;;;;;;;3.60;2.20;;;24.20;67.90;;;;;;5057909;28;20405;-81
2022/08/10 17:22:59;;;;;;;2.67;2.10;;;24.10;68.20;;;;;;5047927;28;20402;-78
2022/08/10 17:25:28;;;;;;;9.77;2.30;;;24.00;68.50;;;;;;5031115;28;20429;-78
2022/08/10 17:27:58;;;;;;;5.50;2.40;;;23.90;69.30;;;;;;5032384;28;20490;-78